DEMOS: IP look-up, visitors, map, METAR - This is NOT a real site !

Notice: Undefined index: district in /home/sites/beteljuice.co.uk/public_html/DEMOS/betel_who/who_check.php on line 276 corporate bad guys
Find a country:

Home ...

.... Is where the heart is.

Hello new visitor ... Have some fun with the map whilst you are here !


Location:
,
,
United States
Lat:  ,
Lon:
Other stuff:
District:
as: AS14618 Amazon.com, Inc.
countryCode: US
ISP: Amazon.com, Inc.
IP address: 34.204.202.44
Region: VA
Time Zone: America/New_York (always useful to know)
Zip / Postal Code: 20149
Organisation: AWS EC2 (us-east-1)

That's All Folks !

METAR stations within miles - nearest first

Currently reporting:
KJYO LEESBURG/GODFREY distance: 4.54 miles. WNW
@ 2020-04-08  11:55 UTC,

     KJYO 081155Z AUTO 27012G19KT 10SM CLR 13/11 A2959 RMK AO2
KIAD WASH DC/DULLES distance: 7.89 miles. SSE
@ 2020-04-08  11:52 UTC,

     KIAD 081152Z 23008KT 10SM BKN090 BKN120 14/11 A2958 RMK AO2 RAE08 SLP016 P0000 60006 70036 T01390111 10156 20128 58017
KGAI GAITHERSBURG distance: 19.18 miles. ENE
@ 2020-04-08  11:56 UTC,

     KGAI 081156Z AUTO 27004KT 10SM CLR 13/11 A2960 RMK AO2 SLP036 60015 70020 T01280111 10139 20128 55006
KHEF MANASSAS MUNI distance: 22.66 miles. S
@ 2020-04-08  11:56 UTC,

     KHEF 081156Z 25003KT 10SM -RA FEW120 13/12 A2960 RMK AO2 SLP029 P0000 60007 70021 T01330122 10139 20094 58015
KFDK FREDERICK distance: 26.56 miles. NNE
@ 2020-04-08  11:47 UTC,

     KFDK 081147Z 26008KT 10SM SKC 14/12 A2959
KDCA WASHINGTON/NATL distance: 27.83 miles. ESE
@ 2020-04-08  11:52 UTC,

     KDCA 081152Z 19006KT 10SM SCT110 15/12 A2959 RMK AO2 RAE27 SLP020 P0000 60003 70040 T01500122 10156 20133 58012
KDAA FORT BELVOIR/DAV distance: 28.43 miles. SE
@ 2020-04-08  11:56 UTC,

     KDAA 081156Z AUTO 19004KT 10SM CLR 14/12 A2957 RMK AO2 RAE02 PRESFR SLP016 P0002 60007 70032 T01380118 10150 20109 58014 $
KCGS COLLEGE PARK distance: 30.92 miles. E
@ 2020-04-08  11:46 UTC,

     KCGS 081146Z AUTO 00000KT 10SM SCT100 BKN120 14/10 A2958 RMK AO1 T01350101
KHWY WARRENTON distance: 34.12 miles. SSW
@ 2020-04-08  11:55 UTC,

     KHWY 081155Z AUTO 23007KT 10SM SCT090 SCT110 14/12 A2960 RMK AO2 P0001 60003 70027 T01400115 10155 20098
KOKV WINCHESTER RGNL distance: 36.07 miles. W
@ 2020-04-08  11:55 UTC,

     KOKV 081155Z AUTO 25009KT 10SM CLR 13/10 A2959 RMK AO2
KMRB MARTINSBURG distance: 36.2 miles. NW
@ 2020-04-08  11:53 UTC,

     KMRB 081153Z VRB03KT 10SM CLR 14/10 A2960 RMK AO2 SLP021 60011 70027 T01390100 10156 20117 55002
KADW ANDREWS AFB distance: 36.87 miles. ESE
@ 2020-04-08  11:56 UTC,

     KADW 081156Z 24008KT 10SM OVC100 14/12 A2959 RMK AO2A RAE00DZB00E02DZB04E12 SLP026 P0000 60005 70030 T01380117 10146 20128 55006 $
KFME FORT MEADE distance: 38.76 miles. E
@ 2020-04-08  11:45 UTC,

     KFME 081145Z AUTO 29006KT 10SM SCT100 BKN120 12/12 A2962 RMK AO1
KNYG QUANTICO MCAF distance: 39.15 miles. SSE
@ 2020-04-08  11:56 UTC,

     KNYG 081156Z 30008KT 10SM OVC110 14/ A2959 RMK AO2 RAE42 PRESFR SLP019 P0002 60005 70040 T0144 10161 20133 58018 $
KCJR CULPEPER distance: 40.76 miles. SSW
@ 2020-04-08  11:55 UTC,

     KCJR 081155Z AUTO 00000KT 10SM SCT120 14/12 A2961 RMK AO2 P0001 60008 70013 T01410122 10150 20100
KFRR FRONT ROYAL distance: 41.89 miles. WSW
@ 2020-04-08  11:55 UTC,

     KFRR 081155Z AUTO 21006KT 10SM CLR 13/11 A2961 RMK AO1 P0001
KBWI BALTO/WASH INTL distance: 43.94 miles. ENE
@ 2020-04-08  11:54 UTC,

     KBWI 081154Z 24009KT 10SM FEW065 FEW110 BKN140 BKN250 14/11 A2956 RMK AO2 SLP007 60004 70008 T01440111 10150 20122 55017
KDMW CARROLL CNTY distance: 46.43 miles. NNE
@ 2020-04-08  11:40 UTC,

     KDMW 081140Z AUTO 24009KT 10SM CLR 14/12 A2956 RMK AO2
KHGR HAGERSTOWN distance: 47.2 miles. NNW
@ 2020-04-08  11:53 UTC,

     KHGR 081153Z 22006KT 10SM CLR 14/11 A2959 RMK AO2 SLP028 60013 70016 T01390106 10150 20128 51009
KDMH BALTIMORE/DWNTWN distance: 49.49 miles. ENE
@ 2020-04-08  11:54 UTC,

     KDMH 081154Z AUTO 15/11 A2956 RMK AO1 SLP011 60008 70015 T01500111 10156 20144 55014

Not current (maybe part-time, military or newly obsolete)
KW32 CLINTON distance: 36.05 miles. SE
KRSP NSF THURMONT distance: 41.9 miles. N
KRMN STAFFORD REGNL distance: 44.53 miles. S
KJWX FORT RITCHIE distance: 46.64 miles. N
KRYT FOUNTAIN DALE distance: 47.73 miles. N

Total 'clicks': 29 - Current 'clicks': 1

Last 7 days 14 unique visitors - currently active 1
Ashburn, Virginia, United States - more ...      
- Time on line: 0s. (1 total visits)
Dublin, Leinster, Ireland - more ...      
- Last seen: 1 hrs. 19m. 39s. ago. (13 total visits)
Chicksands, England, United Kingdom - more ...      
- Last seen: 1 hrs. 53m. 16s. ago. (1 total visits)
Karlsruhe, Baden-Württemberg, Germany - more ...      
- Last seen: 6 hrs. 36m. 15s. ago. (1 total visits)
Karlsruhe, Baden-Württemberg, Germany - more ...      
- Last seen: 6 hrs. 46m. 26s. ago. (3 total visits)
Karlsruhe, Baden-Württemberg, Germany - more ...      
- Last seen: 6 hrs. 49m. 17s. ago. (1 total visits)
Karlsruhe, Baden-Württemberg, Germany - more ...      
- Last seen: 6 hrs. 49m. 17s. ago. (2 total visits)
Karlsruhe, Baden-Württemberg, Germany - more ...      
- Last seen: 6 hrs. 49m. 18s. ago. (1 total visits)
Karlsruhe, Baden-Württemberg, Germany - more ...      
- Last seen: 6 hrs. 49m. 22s. ago. (1 total visits)
Frankfurt am Main, Hesse, Germany - more ...      
- Last seen: 8 hrs. 19m. 46s. ago. (1 total visits)
luohe shi, Henan, China - more ...      
- Last seen: 11 hrs. 10m. 44s. ago. (1 total visits)
Zhengzhou, Henan, China - more ...      
- Last seen: 11 hrs. 15m. 42s. ago. (1 total visits)
Ashburn, Virginia, United States - more ...      
- Last seen: 16 hrs. 21m. 10s. ago. (1 total visits)
Dublin, Leinster, Ireland - more ...      
- Last seen: 20 hrs. 46m. 20s. ago. (1 total visits)
By Country:
                       5 countries, 14 visitors, 29 hits
United States:
                              2 visitors, 2 hits
Ashburn, Virginia, United States - more ...      
- Time on line: 0s. (1 total visits)
Ashburn, Virginia, United States - more ...      
- Last seen: 16 hrs. 21m. 10s. ago. (1 total visits)
Ireland:
                              2 visitors, 14 hits
Dublin, Leinster, Ireland - more ...      
- Last seen: 1 hrs. 19m. 39s. ago. (13 total visits)
Dublin, Leinster, Ireland - more ...      
- Last seen: 20 hrs. 46m. 20s. ago. (1 total visits)
United Kingdom:
                              1 visitors, 1 hits
Chicksands, England, United Kingdom - more ...      
- Last seen: 1 hrs. 53m. 16s. ago. (1 total visits)
Germany:
                              7 visitors, 10 hits
Karlsruhe, Baden-Württemberg, Germany - more ...      
- Last seen: 6 hrs. 36m. 15s. ago. (1 total visits)
Karlsruhe, Baden-Württemberg, Germany - more ...      
- Last seen: 6 hrs. 46m. 26s. ago. (3 total visits)
Karlsruhe, Baden-Württemberg, Germany - more ...      
- Last seen: 6 hrs. 49m. 17s. ago. (1 total visits)
Karlsruhe, Baden-Württemberg, Germany - more ...      
- Last seen: 6 hrs. 49m. 17s. ago. (2 total visits)
Karlsruhe, Baden-Württemberg, Germany - more ...      
- Last seen: 6 hrs. 49m. 18s. ago. (1 total visits)
Karlsruhe, Baden-Württemberg, Germany - more ...      
- Last seen: 6 hrs. 49m. 22s. ago. (1 total visits)
Frankfurt am Main, Hesse, Germany - more ...      
- Last seen: 8 hrs. 19m. 46s. ago. (1 total visits)
China:
                              2 visitors, 2 hits
luohe shi, Henan, China - more ...      
- Last seen: 11 hrs. 10m. 44s. ago. (1 total visits)
Zhengzhou, Henan, China - more ...      
- Last seen: 11 hrs. 15m. 42s. ago. (1 total visits)

Another beteljuice plaything